sensor_id;sensor_type;location;lat;lon;timestamp;P1;durP1;ratioP1;P2;durP2;ratioP2
57107;SDS011;42987;52.916;6.542;2023-04-15T00:01:28;13.25;;;7.20;;
57107;SDS011;42987;52.916;6.542;2023-04-15T00:03:54;12.98;;;6.28;;
57107;SDS011;42987;52.916;6.542;2023-04-15T00:06:20;12.52;;;6.72;;
57107;SDS011;42987;52.916;6.542;2023-04-15T00:08:46;12.18;;;6.47;;
57107;SDS011;42987;52.916;6.542;2023-04-15T00:11:13;13.23;;;6.45;;
57107;SDS011;42987;52.916;6.542;2023-04-15T00:13:42;11.90;;;7.10;;
57107;SDS011;42987;52.916;6.542;2023-04-15T00:16:08;10.55;;;7.43;;
57107;SDS011;42987;52.916;6.542;2023-04-15T00:18:34;10.02;;;6.72;;
57107;SDS011;42987;52.916;6.542;2023-04-15T00:21:01;11.77;;;7.45;;
57107;SDS011;42987;52.916;6.542;2023-04-15T00:23:28;10.40;;;7.03;;
57107;SDS011;42987;52.916;6.542;2023-04-15T00:25:54;11.45;;;6.97;;
57107;SDS011;42987;52.916;6.542;2023-04-15T00:28:20;11.32;;;7.43;;
57107;SDS011;42987;52.916;6.542;2023-04-15T00:30:46;10.98;;;7.38;;
57107;SDS011;42987;52.916;6.542;2023-04-15T00:33:12;13.13;;;7.85;;
57107;SDS011;42987;52.916;6.542;2023-04-15T00:35:39;12.07;;;7.70;;
57107;SDS011;42987;52.916;6.542;2023-04-15T00:38:05;10.88;;;7.25;;
57107;SDS011;42987;52.916;6.542;2023-04-15T00:40:33;12.68;;;7.38;;
57107;SDS011;42987;52.916;6.542;2023-04-15T00:43:03;12.05;;;7.90;;
57107;SDS011;42987;52.916;6.542;2023-04-15T00:45:29;11.90;;;7.77;;
57107;SDS011;42987;52.916;6.542;2023-04-15T00:47:55;11.65;;;8.13;;
57107;SDS011;42987;52.916;6.542;2023-04-15T00:50:21;12.77;;;8.65;;
57107;SDS011;42987;52.916;6.542;2023-04-15T00:52:47;9.98;;;7.82;;
57107;SDS011;42987;52.916;6.542;2023-04-15T00:55:14;11.15;;;8.50;;
57107;SDS011;42987;52.916;6.542;2023-04-15T00:57:40;14.02;;;8.88;;
57107;SDS011;42987;52.916;6.542;2023-04-15T01:00:06;13.75;;;8.13;;
57107;SDS011;42987;52.916;6.542;2023-04-15T01:02:33;12.32;;;9.25;;
57107;SDS011;42987;52.916;6.542;2023-04-15T01:05:00;12.57;;;8.35;;
57107;SDS011;42987;52.916;6.542;2023-04-15T01:07:27;14.80;;;9.18;;
57107;SDS011;42987;52.916;6.542;2023-04-15T01:09:53;12.73;;;9.15;;
57107;SDS011;42987;52.916;6.542;2023-04-15T01:12:19;11.15;;;8.82;;
57107;SDS011;42987;52.916;6.542;2023-04-15T01:14:48;13.32;;;9.18;;
57107;SDS011;42987;52.916;6.542;2023-04-15T01:17:14;12.30;;;9.15;;
57107;SDS011;42987;52.916;6.542;2023-04-15T01:19:40;14.32;;;9.52;;
57107;SDS011;42987;52.916;6.542;2023-04-15T01:22:06;13.23;;;9.90;;
57107;SDS011;42987;52.916;6.542;2023-04-15T01:24:33;11.55;;;9.45;;
57107;SDS011;42987;52.916;6.542;2023-04-15T01:27:01;13.40;;;9.70;;
57107;SDS011;42987;52.916;6.542;2023-04-15T01:29:30;13.50;;;9.30;;
57107;SDS011;42987;52.916;6.542;2023-04-15T01:32:01;13.82;;;9.73;;
57107;SDS011;42987;52.916;6.542;2023-04-15T01:34:27;13.88;;;9.95;;
57107;SDS011;42987;52.916;6.542;2023-04-15T01:36:52;12.45;;;9.57;;
57107;SDS011;42987;52.916;6.542;2023-04-15T01:39:21;11.65;;;9.98;;
57107;SDS011;42987;52.916;6.542;2023-04-15T01:41:47;12.23;;;10.50;;
57107;SDS011;42987;52.916;6.542;2023-04-15T01:44:13;15.65;;;10.45;;
57107;SDS011;42987;52.916;6.542;2023-04-15T01:46:39;11.30;;;10.10;;
57107;SDS011;42987;52.916;6.542;2023-04-15T01:49:05;14.43;;;10.90;;
57107;SDS011;42987;52.916;6.542;2023-04-15T01:51:31;13.45;;;10.68;;
57107;SDS011;42987;52.916;6.542;2023-04-15T01:53:57;14.13;;;10.68;;
57107;SDS011;42987;52.916;6.542;2023-04-15T01:56:26;14.00;;;11.45;;
57107;SDS011;42987;52.916;6.542;2023-04-15T01:58:52;16.15;;;11.55;;
57107;SDS011;42987;52.916;6.542;2023-04-15T02:01:18;17.30;;;11.60;;
57107;SDS011;42987;52.916;6.542;2023-04-15T02:03:44;14.00;;;11.40;;
57107;SDS011;42987;52.916;6.542;2023-04-15T02:06:10;12.57;;;10.77;;
57107;SDS011;42987;52.916;6.542;2023-04-15T02:08:37;13.88;;;11.18;;
57107;SDS011;42987;52.916;6.542;2023-04-15T02:11:05;16.25;;;11.27;;
57107;SDS011;42987;52.916;6.542;2023-04-15T02:13:31;17.52;;;11.43;;
57107;SDS011;42987;52.916;6.542;2023-04-15T02:15:57;15.80;;;12.07;;
57107;SDS011;42987;52.916;6.542;2023-04-15T02:18:26;16.63;;;13.25;;
57107;SDS011;42987;52.916;6.542;2023-04-15T02:20:51;15.43;;;12.00;;
57107;SDS011;42987;52.916;6.542;2023-04-15T02:23:17;17.98;;;13.00;;
57107;SDS011;42987;52.916;6.542;2023-04-15T02:25:43;15.63;;;12.45;;
57107;SDS011;42987;52.916;6.542;2023-04-15T02:28:09;14.68;;;12.90;;
57107;SDS011;42987;52.916;6.542;2023-04-15T02:30:35;15.75;;;12.52;;
57107;SDS011;42987;52.916;6.542;2023-04-15T02:33:01;14.63;;;12.80;;
57107;SDS011;42987;52.916;6.542;2023-04-15T02:35:27;15.75;;;13.20;;
57107;SDS011;42987;52.916;6.542;2023-04-15T02:37:56;14.90;;;12.10;;
57107;SDS011;42987;52.916;6.542;2023-04-15T02:40:22;16.00;;;13.10;;
57107;SDS011;42987;52.916;6.542;2023-04-15T02:42:47;16.48;;;13.30;;
57107;SDS011;42987;52.916;6.542;2023-04-15T02:45:13;15.27;;;12.98;;
57107;SDS011;42987;52.916;6.542;2023-04-15T02:47:39;18.27;;;14.20;;
57107;SDS011;42987;52.916;6.542;2023-04-15T02:50:10;16.17;;;13.60;;
57107;SDS011;42987;52.916;6.542;2023-04-15T02:52:40;17.88;;;14.82;;
57107;SDS011;42987;52.916;6.542;2023-04-15T02:55:07;15.98;;;13.85;;
57107;SDS011;42987;52.916;6.542;2023-04-15T02:57:33;15.50;;;13.88;;
57107;SDS011;42987;52.916;6.542;2023-04-15T03:00:02;18.02;;;15.02;;
57107;SDS011;42987;52.916;6.542;2023-04-15T03:02:35;17.15;;;14.32;;
57107;SDS011;42987;52.916;6.542;2023-04-15T03:05:01;16.08;;;14.10;;
57107;SDS011;42987;52.916;6.542;2023-04-15T03:07:28;19.27;;;14.48;;
57107;SDS011;42987;52.916;6.542;2023-04-15T03:09:54;19.27;;;14.82;;
57107;SDS011;42987;52.916;6.542;2023-04-15T03:12:19;21.05;;;14.80;;
57107;SDS011;42987;52.916;6.542;2023-04-15T03:14:45;17.95;;;15.05;;
57107;SDS011;42987;52.916;6.542;2023-04-15T03:17:11;21.10;;;14.25;;
57107;SDS011;42987;52.916;6.542;2023-04-15T03:19:37;19.73;;;14.32;;
57107;SDS011;42987;52.916;6.542;2023-04-15T03:22:03;16.75;;;14.93;;
57107;SDS011;42987;52.916;6.542;2023-04-15T03:24:28;18.60;;;14.40;;
57107;SDS011;42987;52.916;6.542;2023-04-15T03:26:55;15.63;;;13.45;;
57107;SDS011;42987;52.916;6.542;2023-04-15T03:29:22;17.13;;;14.48;;
57107;SDS011;42987;52.916;6.542;2023-04-15T03:31:48;18.67;;;15.85;;
57107;SDS011;42987;52.916;6.542;2023-04-15T03:34:14;17.98;;;15.20;;
57107;SDS011;42987;52.916;6.542;2023-04-15T03:36:40;17.67;;;15.27;;
57107;SDS011;42987;52.916;6.542;2023-04-15T03:39:06;16.23;;;14.52;;
57107;SDS011;42987;52.916;6.542;2023-04-15T03:41:32;16.58;;;14.80;;
57107;SDS011;42987;52.916;6.542;2023-04-15T03:43:57;16.50;;;14.80;;
57107;SDS011;42987;52.916;6.542;2023-04-15T03:46:26;16.98;;;14.45;;
57107;SDS011;42987;52.916;6.542;2023-04-15T03:48:52;16.08;;;14.48;;
57107;SDS011;42987;52.916;6.542;2023-04-15T03:51:18;16.60;;;14.82;;
57107;SDS011;42987;52.916;6.542;2023-04-15T03:53:43;16.75;;;14.82;;
57107;SDS011;42987;52.916;6.542;2023-04-15T03:56:10;18.27;;;16.38;;
57107;SDS011;42987;52.916;6.542;2023-04-15T03:58:35;18.65;;;16.70;;
57107;SDS011;42987;52.916;6.542;2023-04-15T04:01:01;19.25;;;17.02;;
57107;SDS011;42987;52.916;6.542;2023-04-15T04:03:27;19.63;;;17.52;;
57107;SDS011;42987;52.916;6.542;2023-04-15T04:05:56;20.55;;;18.38;;
57107;SDS011;42987;52.916;6.542;2023-04-15T04:08:22;19.88;;;17.33;;
57107;SDS011;42987;52.916;6.542;2023-04-15T04:10:47;20.20;;;18.10;;
57107;SDS011;42987;52.916;6.542;2023-04-15T04:13:13;20.17;;;18.08;;
57107;SDS011;42987;52.916;6.542;2023-04-15T04:15:39;20.88;;;17.25;;
57107;SDS011;42987;52.916;6.542;2023-04-15T04:18:05;19.42;;;17.30;;
57107;SDS011;42987;52.916;6.542;2023-04-15T04:20:31;20.25;;;18.08;;
57107;SDS011;42987;52.916;6.542;2023-04-15T04:22:57;19.95;;;17.35;;
57107;SDS011;42987;52.916;6.542;2023-04-15T04:25:26;21.23;;;18.70;;
57107;SDS011;42987;52.916;6.542;2023-04-15T04:27:52;20.80;;;18.60;;
57107;SDS011;42987;52.916;6.542;2023-04-15T04:30:18;20.15;;;18.08;;
57107;SDS011;42987;52.916;6.542;2023-04-15T04:32:44;22.17;;;19.85;;
57107;SDS011;42987;52.916;6.542;2023-04-15T04:35:10;21.25;;;19.05;;
57107;SDS011;42987;52.916;6.542;2023-04-15T04:37:36;21.30;;;18.48;;
57107;SDS011;42987;52.916;6.542;2023-04-15T04:40:01;20.10;;;17.95;;
57107;SDS011;42987;52.916;6.542;2023-04-15T04:42:28;19.83;;;17.83;;
57107;SDS011;42987;52.916;6.542;2023-04-15T04:44:55;21.73;;;19.10;;
57107;SDS011;42987;52.916;6.542;2023-04-15T04:47:21;22.67;;;19.77;;
57107;SDS011;42987;52.916;6.542;2023-04-15T04:49:47;22.95;;;20.05;;
57107;SDS011;42987;52.916;6.542;2023-04-15T04:52:13;23.45;;;21.02;;
57107;SDS011;42987;52.916;6.542;2023-04-15T04:54:38;22.73;;;20.40;;
57107;SDS011;42987;52.916;6.542;2023-04-15T04:57:04;23.92;;;20.00;;
57107;SDS011;42987;52.916;6.542;2023-04-15T04:59:35;25.40;;;21.77;;
57107;SDS011;42987;52.916;6.542;2023-04-15T05:02:01;25.23;;;22.52;;
57107;SDS011;42987;52.916;6.542;2023-04-15T05:04:27;26.90;;;24.00;;
57107;SDS011;42987;52.916;6.542;2023-04-15T05:06:53;27.55;;;23.52;;
57107;SDS011;42987;52.916;6.542;2023-04-15T05:09:21;26.45;;;23.48;;
57107;SDS011;42987;52.916;6.542;2023-04-15T05:11:48;32.00;;;26.23;;
57107;SDS011;42987;52.916;6.542;2023-04-15T05:14:13;30.35;;;26.83;;
57107;SDS011;42987;52.916;6.542;2023-04-15T05:16:40;26.27;;;23.52;;
57107;SDS011;42987;52.916;6.542;2023-04-15T05:19:06;31.60;;;27.92;;
57107;SDS011;42987;52.916;6.542;2023-04-15T05:21:32;35.13;;;29.50;;
57107;SDS011;42987;52.916;6.542;2023-04-15T05:23:58;33.25;;;28.40;;
57107;SDS011;42987;52.916;6.542;2023-04-15T05:26:23;34.67;;;28.55;;
57107;SDS011;42987;52.916;6.542;2023-04-15T05:28:49;29.48;;;25.48;;
57107;SDS011;42987;52.916;6.542;2023-04-15T05:31:15;35.75;;;29.55;;
57107;SDS011;42987;52.916;6.542;2023-04-15T05:33:41;32.55;;;27.98;;
57107;SDS011;42987;52.916;6.542;2023-04-15T05:36:07;29.08;;;25.45;;
57107;SDS011;42987;52.916;6.542;2023-04-15T05:38:32;29.50;;;26.30;;
57107;SDS011;42987;52.916;6.542;2023-04-15T05:40:58;31.70;;;28.20;;
57107;SDS011;42987;52.916;6.542;2023-04-15T05:43:24;32.85;;;29.25;;
57107;SDS011;42987;52.916;6.542;2023-04-15T05:45:50;32.17;;;28.30;;
57107;SDS011;42987;52.916;6.542;2023-04-15T05:48:16;34.00;;;28.50;;
57107;SDS011;42987;52.916;6.542;2023-04-15T05:50:41;33.80;;;28.38;;
57107;SDS011;42987;52.916;6.542;2023-04-15T05:53:07;30.33;;;26.67;;
57107;SDS011;42987;52.916;6.542;2023-04-15T05:55:33;30.95;;;27.33;;
57107;SDS011;42987;52.916;6.542;2023-04-15T05:57:59;29.67;;;26.60;;
57107;SDS011;42987;52.916;6.542;2023-04-15T06:00:25;29.00;;;25.73;;
57107;SDS011;42987;52.916;6.542;2023-04-15T06:02:51;27.83;;;24.92;;
57107;SDS011;42987;52.916;6.542;2023-04-15T06:05:17;27.60;;;24.73;;
57107;SDS011;42987;52.916;6.542;2023-04-15T06:07:43;30.33;;;25.52;;
57107;SDS011;42987;52.916;6.542;2023-04-15T06:10:09;26.42;;;23.73;;
57107;SDS011;42987;52.916;6.542;2023-04-15T06:12:35;24.15;;;21.70;;
57107;SDS011;42987;52.916;6.542;2023-04-15T06:15:00;25.70;;;22.95;;
57107;SDS011;42987;52.916;6.542;2023-04-15T06:17:26;26.50;;;23.67;;
57107;SDS011;42987;52.916;6.542;2023-04-15T06:19:58;26.75;;;23.88;;
57107;SDS011;42987;52.916;6.542;2023-04-15T06:22:26;24.58;;;22.08;;
57107;SDS011;42987;52.916;6.542;2023-04-15T06:24:56;27.75;;;24.02;;
57107;SDS011;42987;52.916;6.542;2023-04-15T06:27:21;25.08;;;22.48;;
57107;SDS011;42987;52.916;6.542;2023-04-15T06:29:56;26.27;;;23.55;;
57107;SDS011;42987;52.916;6.542;2023-04-15T06:32:22;25.73;;;23.02;;
57107;SDS011;42987;52.916;6.542;2023-04-15T06:34:47;23.98;;;21.40;;
57107;SDS011;42987;52.916;6.542;2023-04-15T06:37:13;24.73;;;22.23;;
57107;SDS011;42987;52.916;6.542;2023-04-15T06:39:40;24.25;;;21.70;;
57107;SDS011;42987;52.916;6.542;2023-04-15T06:42:09;24.85;;;22.25;;
57107;SDS011;42987;52.916;6.542;2023-04-15T06:44:36;22.80;;;20.42;;
57107;SDS011;42987;52.916;6.542;2023-04-15T06:47:02;23.15;;;20.60;;
57107;SDS011;42987;52.916;6.542;2023-04-15T06:49:28;24.48;;;21.88;;
57107;SDS011;42987;52.916;6.542;2023-04-15T06:51:54;24.83;;;22.23;;
57107;SDS011;42987;52.916;6.542;2023-04-15T06:54:23;23.90;;;21.35;;
57107;SDS011;42987;52.916;6.542;2023-04-15T06:56:51;23.08;;;20.77;;
57107;SDS011;42987;52.916;6.542;2023-04-15T06:59:17;22.38;;;20.08;;
57107;SDS011;42987;52.916;6.542;2023-04-15T07:01:43;21.50;;;19.23;;
57107;SDS011;42987;52.916;6.542;2023-04-15T07:04:09;22.23;;;19.90;;
57107;SDS011;42987;52.916;6.542;2023-04-15T07:06:38;20.67;;;18.50;;
57107;SDS011;42987;52.916;6.542;2023-04-15T07:09:04;20.45;;;18.15;;
57107;SDS011;42987;52.916;6.542;2023-04-15T07:11:30;20.38;;;18.27;;
57107;SDS011;42987;52.916;6.542;2023-04-15T07:13:58;20.08;;;17.98;;
57107;SDS011;42987;52.916;6.542;2023-04-15T07:16:25;20.55;;;18.45;;
57107;SDS011;42987;52.916;6.542;2023-04-15T07:18:53;21.65;;;18.85;;
57107;SDS011;42987;52.916;6.542;2023-04-15T07:21:20;19.15;;;17.15;;
57107;SDS011;42987;52.916;6.542;2023-04-15T07:23:45;17.73;;;15.85;;
57107;SDS011;42987;52.916;6.542;2023-04-15T07:26:11;20.02;;;17.77;;
57107;SDS011;42987;52.916;6.542;2023-04-15T07:28:37;18.70;;;16.70;;
57107;SDS011;42987;52.916;6.542;2023-04-15T07:31:03;17.92;;;16.02;;
57107;SDS011;42987;52.916;6.542;2023-04-15T07:33:29;16.80;;;15.05;;
57107;SDS011;42987;52.916;6.542;2023-04-15T07:36:00;16.83;;;15.13;;
57107;SDS011;42987;52.916;6.542;2023-04-15T07:38:26;16.67;;;14.77;;
57107;SDS011;42987;52.916;6.542;2023-04-15T07:40:55;16.50;;;14.77;;
57107;SDS011;42987;52.916;6.542;2023-04-15T07:43:22;18.67;;;13.77;;
57107;SDS011;42987;52.916;6.542;2023-04-15T07:45:48;16.63;;;14.82;;
57107;SDS011;42987;52.916;6.542;2023-04-15T07:48:13;16.80;;;13.82;;
57107;SDS011;42987;52.916;6.542;2023-04-15T07:50:39;14.45;;;12.88;;
57107;SDS011;42987;52.916;6.542;2023-04-15T07:53:05;14.68;;;13.10;;
57107;SDS011;42987;52.916;6.542;2023-04-15T07:55:31;15.18;;;12.75;;
57107;SDS011;42987;52.916;6.542;2023-04-15T07:57:57;13.60;;;12.20;;
57107;SDS011;42987;52.916;6.542;2023-04-15T08:00:23;12.93;;;11.40;;
57107;SDS011;42987;52.916;6.542;2023-04-15T08:02:52;13.00;;;11.07;;
57107;SDS011;42987;52.916;6.542;2023-04-15T08:05:21;11.88;;;10.35;;
57107;SDS011;42987;52.916;6.542;2023-04-15T08:07:47;11.52;;;9.93;;
57107;SDS011;42987;52.916;6.542;2023-04-15T08:10:13;13.80;;;9.52;;
57107;SDS011;42987;52.916;6.542;2023-04-15T08:12:39;13.23;;;9.23;;
57107;SDS011;42987;52.916;6.542;2023-04-15T08:15:05;10.93;;;8.57;;
57107;SDS011;42987;52.916;6.542;2023-04-15T08:17:32;10.25;;;8.57;;
57107;SDS011;42987;52.916;6.542;2023-04-15T08:19:58;8.43;;;7.45;;
57107;SDS011;42987;52.916;6.542;2023-04-15T08:22:25;12.05;;;8.05;;
57107;SDS011;42987;52.916;6.542;2023-04-15T08:24:51;11.45;;;7.68;;
57107;SDS011;42987;52.916;6.542;2023-04-15T08:27:18;10.70;;;7.28;;
57107;SDS011;42987;52.916;6.542;2023-04-15T08:29:44;8.77;;;7.38;;
57107;SDS011;42987;52.916;6.542;2023-04-15T08:32:10;9.40;;;7.32;;
57107;SDS011;42987;52.916;6.542;2023-04-15T08:34:35;10.00;;;6.88;;
57107;SDS011;42987;52.916;6.542;2023-04-15T08:37:01;8.63;;;7.00;;
57107;SDS011;42987;52.916;6.542;2023-04-15T08:39:27;8.98;;;7.35;;
57107;SDS011;42987;52.916;6.542;2023-04-15T08:42:00;9.13;;;7.85;;
57107;SDS011;42987;52.916;6.542;2023-04-15T08:44:33;8.77;;;7.15;;
57107;SDS011;42987;52.916;6.542;2023-04-15T08:47:02;10.20;;;7.13;;
57107;SDS011;42987;52.916;6.542;2023-04-15T08:49:34;11.52;;;7.95;;
57107;SDS011;42987;52.916;6.542;2023-04-15T08:52:03;11.50;;;7.55;;
57107;SDS011;42987;52.916;6.542;2023-04-15T08:54:30;11.45;;;7.55;;
57107;SDS011;42987;52.916;6.542;2023-04-15T08:56:57;9.52;;;7.03;;
57107;SDS011;42987;52.916;6.542;2023-04-15T08:59:23;9.75;;;7.60;;
57107;SDS011;42987;52.916;6.542;2023-04-15T09:01:49;9.70;;;8.35;;
57107;SDS011;42987;52.916;6.542;2023-04-15T09:04:16;8.63;;;7.60;;
57107;SDS011;42987;52.916;6.542;2023-04-15T09:06:42;9.40;;;6.70;;
57107;SDS011;42987;52.916;6.542;2023-04-15T09:09:09;9.52;;;6.60;;
57107;SDS011;42987;52.916;6.542;2023-04-15T09:11:36;8.50;;;6.38;;
57107;SDS011;42987;52.916;6.542;2023-04-15T09:14:01;8.68;;;6.30;;
57107;SDS011;42987;52.916;6.542;2023-04-15T09:16:27;10.02;;;6.68;;
57107;SDS011;42987;52.916;6.542;2023-04-15T09:18:56;7.88;;;6.05;;
57107;SDS011;42987;52.916;6.542;2023-04-15T09:21:22;9.35;;;5.70;;
57107;SDS011;42987;52.916;6.542;2023-04-15T09:29:14;8.02;;;5.82;;
57107;SDS011;42987;52.916;6.542;2023-04-15T09:31:40;7.75;;;5.63;;
57107;SDS011;42987;52.916;6.542;2023-04-15T09:34:10;9.23;;;5.82;;
57107;SDS011;42987;52.916;6.542;2023-04-15T09:39:11;7.50;;;3.92;;
57107;SDS011;42987;52.916;6.542;2023-04-15T09:41:38;5.88;;;3.55;;
57107;SDS011;42987;52.916;6.542;2023-04-15T09:44:05;7.10;;;4.18;;
57107;SDS011;42987;52.916;6.542;2023-04-15T09:46:43;6.22;;;3.75;;
57107;SDS011;42987;52.916;6.542;2023-04-15T09:49:10;6.13;;;3.42;;
57107;SDS011;42987;52.916;6.542;2023-04-15T09:51:37;5.85;;;3.25;;
57107;SDS011;42987;52.916;6.542;2023-04-15T09:54:03;8.02;;;3.25;;
57107;SDS011;42987;52.916;6.542;2023-04-15T09:56:36;6.93;;;3.47;;
57107;SDS011;42987;52.916;6.542;2023-04-15T09:59:05;6.28;;;3.03;;
57107;SDS011;42987;52.916;6.542;2023-04-15T10:01:32;7.28;;;3.20;;
57107;SDS011;42987;52.916;6.542;2023-04-15T10:03:58;7.40;;;3.30;;
57107;SDS011;42987;52.916;6.542;2023-04-15T10:06:31;4.82;;;2.80;;
57107;SDS011;42987;52.916;6.542;2023-04-15T10:08:57;7.22;;;3.15;;
57107;SDS011;42987;52.916;6.542;2023-04-15T10:11:25;5.22;;;2.72;;
57107;SDS011;42987;52.916;6.542;2023-04-15T10:13:56;3.85;;;2.45;;
57107;SDS011;42987;52.916;6.542;2023-04-15T10:16:24;5.10;;;2.85;;
57107;SDS011;42987;52.916;6.542;2023-04-15T10:18:55;4.60;;;2.60;;
57107;SDS011;42987;52.916;6.542;2023-04-15T10:21:25;5.15;;;2.70;;
57107;SDS011;42987;52.916;6.542;2023-04-15T10:23:52;4.07;;;2.45;;
57107;SDS011;42987;52.916;6.542;2023-04-15T10:26:22;2.95;;;1.92;;
57107;SDS011;42987;52.916;6.542;2023-04-15T10:28:49;3.70;;;2.42;;
57107;SDS011;42987;52.916;6.542;2023-04-15T10:31:16;8.27;;;2.30;;
57107;SDS011;42987;52.916;6.542;2023-04-15T10:33:42;4.88;;;2.45;;
57107;SDS011;42987;52.916;6.542;2023-04-15T10:36:10;7.10;;;2.80;;
57107;SDS011;42987;52.916;6.542;2023-04-15T10:38:37;4.20;;;2.65;;
57107;SDS011;42987;52.916;6.542;2023-04-15T10:43:55;4.40;;;2.25;;
57107;SDS011;42987;52.916;6.542;2023-04-15T10:49:36;4.47;;;2.03;;
57107;SDS011;42987;52.916;6.542;2023-04-15T10:51:58;5.10;;;2.35;;
57107;SDS011;42987;52.916;6.542;2023-04-15T10:56:51;4.40;;;2.28;;
57107;SDS011;42987;52.916;6.542;2023-04-15T11:02:39;6.38;;;2.63;;
57107;SDS011;42987;52.916;6.542;2023-04-15T11:08:10;4.65;;;2.03;;
57107;SDS011;42987;52.916;6.542;2023-04-15T11:13:16;3.85;;;2.10;;
57107;SDS011;42987;52.916;6.542;2023-04-15T11:15:46;3.72;;;1.80;;
57107;SDS011;42987;52.916;6.542;2023-04-15T11:20:50;5.03;;;2.42;;
57107;SDS011;42987;52.916;6.542;2023-04-15T11:23:37;6.63;;;2.33;;
57107;SDS011;42987;52.916;6.542;2023-04-15T11:26:06;6.30;;;2.50;;
57107;SDS011;42987;52.916;6.542;2023-04-15T11:28:42;6.43;;;2.72;;
57107;SDS011;42987;52.916;6.542;2023-04-15T11:31:13;5.35;;;2.40;;
57107;SDS011;42987;52.916;6.542;2023-04-15T11:34:05;6.32;;;2.88;;
57107;SDS011;42987;52.916;6.542;2023-04-15T11:36:29;7.38;;;2.80;;
57107;SDS011;42987;52.916;6.542;2023-04-15T11:38:58;6.70;;;3.05;;
57107;SDS011;42987;52.916;6.542;2023-04-15T11:41:25;8.00;;;3.70;;
57107;SDS011;42987;52.916;6.542;2023-04-15T11:43:50;7.53;;;3.33;;
57107;SDS011;42987;52.916;6.542;2023-04-15T11:46:17;7.13;;;3.20;;
57107;SDS011;42987;52.916;6.542;2023-04-15T11:48:43;7.75;;;3.08;;
57107;SDS011;42987;52.916;6.542;2023-04-15T11:51:10;7.88;;;2.97;;
57107;SDS011;42987;52.916;6.542;2023-04-15T11:56:22;6.03;;;2.90;;
57107;SDS011;42987;52.916;6.542;2023-04-15T11:58:54;6.78;;;3.30;;
57107;SDS011;42987;52.916;6.542;2023-04-15T12:01:29;9.52;;;3.40;;
57107;SDS011;42987;52.916;6.542;2023-04-15T12:03:59;9.25;;;3.20;;
57107;SDS011;42987;52.916;6.542;2023-04-15T12:06:30;7.32;;;2.72;;
57107;SDS011;42987;52.916;6.542;2023-04-15T12:09:09;7.82;;;2.70;;
57107;SDS011;42987;52.916;6.542;2023-04-15T12:11:46;6.50;;;2.60;;
57107;SDS011;42987;52.916;6.542;2023-04-15T12:14:29;6.18;;;2.40;;
57107;SDS011;42987;52.916;6.542;2023-04-15T12:16:58;6.53;;;2.40;;
57107;SDS011;42987;52.916;6.542;2023-04-15T12:21:54;17.17;;;4.13;;
57107;SDS011;42987;52.916;6.542;2023-04-15T12:24:26;7.03;;;2.70;;
57107;SDS011;42987;52.916;6.542;2023-04-15T12:27:09;9.57;;;2.50;;
57107;SDS011;42987;52.916;6.542;2023-04-15T12:29:36;8.85;;;2.67;;
57107;SDS011;42987;52.916;6.542;2023-04-15T12:32:10;7.80;;;2.53;;
57107;SDS011;42987;52.916;6.542;2023-04-15T12:34:51;8.20;;;2.30;;
57107;SDS011;42987;52.916;6.542;2023-04-15T12:37:21;9.63;;;3.00;;
57107;SDS011;42987;52.916;6.542;2023-04-15T12:39:47;7.75;;;2.22;;
57107;SDS011;42987;52.916;6.542;2023-04-15T12:42:14;11.55;;;2.72;;
57107;SDS011;42987;52.916;6.542;2023-04-15T12:44:41;7.72;;;2.28;;
57107;SDS011;42987;52.916;6.542;2023-04-15T12:47:07;10.52;;;2.70;;
57107;SDS011;42987;52.916;6.542;2023-04-15T12:49:33;9.02;;;2.65;;
57107;SDS011;42987;52.916;6.542;2023-04-15T12:51:59;7.18;;;2.40;;
57107;SDS011;42987;52.916;6.542;2023-04-15T12:54:27;9.20;;;2.70;;
57107;SDS011;42987;52.916;6.542;2023-04-15T12:56:54;8.30;;;2.88;;
57107;SDS011;42987;52.916;6.542;2023-04-15T12:59:20;8.55;;;2.67;;
57107;SDS011;42987;52.916;6.542;2023-04-15T13:01:47;9.82;;;2.22;;
57107;SDS011;42987;52.916;6.542;2023-04-15T13:04:14;8.07;;;2.53;;
57107;SDS011;42987;52.916;6.542;2023-04-15T13:06:43;8.68;;;2.65;;
57107;SDS011;42987;52.916;6.542;2023-04-15T13:09:08;7.68;;;2.63;;
57107;SDS011;42987;52.916;6.542;2023-04-15T13:11:35;8.57;;;2.30;;
57107;SDS011;42987;52.916;6.542;2023-04-15T13:14:04;7.05;;;2.15;;
57107;SDS011;42987;52.916;6.542;2023-04-15T13:16:31;10.00;;;2.10;;
57107;SDS011;42987;52.916;6.542;2023-04-15T13:18:58;6.43;;;1.98;;
57107;SDS011;42987;52.916;6.542;2023-04-15T13:21:25;8.93;;;2.13;;
57107;SDS011;42987;52.916;6.542;2023-04-15T13:23:51;6.22;;;2.20;;
57107;SDS011;42987;52.916;6.542;2023-04-15T13:26:17;8.65;;;2.22;;
57107;SDS011;42987;52.916;6.542;2023-04-15T13:28:43;9.15;;;2.30;;
57107;SDS011;42987;52.916;6.542;2023-04-15T13:31:10;10.00;;;2.38;;
57107;SDS011;42987;52.916;6.542;2023-04-15T13:33:35;11.10;;;3.05;;
57107;SDS011;42987;52.916;6.542;2023-04-15T13:36:01;8.27;;;2.65;;
57107;SDS011;42987;52.916;6.542;2023-04-15T13:38:28;8.85;;;2.70;;
57107;SDS011;42987;52.916;6.542;2023-04-15T13:40:54;11.85;;;3.15;;
57107;SDS011;42987;52.916;6.542;2023-04-15T13:43:19;8.93;;;2.67;;
57107;SDS011;42987;52.916;6.542;2023-04-15T13:45:45;10.80;;;2.55;;
57107;SDS011;42987;52.916;6.542;2023-04-15T13:48:14;9.88;;;2.35;;
57107;SDS011;42987;52.916;6.542;2023-04-15T13:50:40;9.45;;;2.40;;
57107;SDS011;42987;52.916;6.542;2023-04-15T13:53:12;9.27;;;2.42;;
57107;SDS011;42987;52.916;6.542;2023-04-15T13:55:38;5.88;;;2.10;;
57107;SDS011;42987;52.916;6.542;2023-04-15T13:58:06;7.43;;;2.33;;
57107;SDS011;42987;52.916;6.542;2023-04-15T14:00:32;8.23;;;2.47;;
57107;SDS011;42987;52.916;6.542;2023-04-15T14:02:58;8.23;;;2.47;;
57107;SDS011;42987;52.916;6.542;2023-04-15T14:05:24;7.97;;;2.53;;
57107;SDS011;42987;52.916;6.542;2023-04-15T14:07:50;8.20;;;2.75;;
57107;SDS011;42987;52.916;6.542;2023-04-15T14:10:16;7.38;;;2.58;;
57107;SDS011;42987;52.916;6.542;2023-04-15T14:12:42;9.88;;;2.90;;
57107;SDS011;42987;52.916;6.542;2023-04-15T14:15:08;11.85;;;3.30;;
57107;SDS011;42987;52.916;6.542;2023-04-15T14:17:34;9.70;;;2.90;;
57107;SDS011;42987;52.916;6.542;2023-04-15T14:20:00;9.57;;;2.70;;
57107;SDS011;42987;52.916;6.542;2023-04-15T14:22:26;8.07;;;2.40;;
57107;SDS011;42987;52.916;6.542;2023-04-15T14:24:51;8.63;;;2.42;;
57107;SDS011;42987;52.916;6.542;2023-04-15T14:27:21;13.20;;;2.53;;
57107;SDS011;42987;52.916;6.542;2023-04-15T14:29:47;9.90;;;2.88;;
57107;SDS011;42987;52.916;6.542;2023-04-15T14:32:13;9.07;;;2.78;;
57107;SDS011;42987;52.916;6.542;2023-04-15T14:34:39;11.18;;;2.92;;
57107;SDS011;42987;52.916;6.542;2023-04-15T14:37:06;8.40;;;3.13;;
57107;SDS011;42987;52.916;6.542;2023-04-15T14:39:31;9.68;;;3.95;;
57107;SDS011;42987;52.916;6.542;2023-04-15T14:41:57;9.20;;;2.53;;
57107;SDS011;42987;52.916;6.542;2023-04-15T14:44:26;8.45;;;3.10;;
57107;SDS011;42987;52.916;6.542;2023-04-15T14:46:55;10.77;;;3.55;;
57107;SDS011;42987;52.916;6.542;2023-04-15T14:49:21;10.07;;;3.95;;
57107;SDS011;42987;52.916;6.542;2023-04-15T14:51:49;10.65;;;3.90;;
57107;SDS011;42987;52.916;6.542;2023-04-15T14:54:14;9.07;;;3.13;;
57107;SDS011;42987;52.916;6.542;2023-04-15T14:56:40;7.95;;;3.63;;
57107;SDS011;42987;52.916;6.542;2023-04-15T14:59:06;11.25;;;4.13;;
57107;SDS011;42987;52.916;6.542;2023-04-15T15:01:32;11.93;;;3.92;;
57107;SDS011;42987;52.916;6.542;2023-04-15T15:03:58;13.07;;;3.85;;
57107;SDS011;42987;52.916;6.542;2023-04-15T15:06:24;13.77;;;3.85;;